HRGA4: Little River, Horatio, AR

Data processed at Fri Mar 09 2018 23:11


All information presented herein is the property of the government of the United States of America and may be revised or deleted at any time without prior notice.
Dissemination of this information without the expressed written consent of the Public Affairs Office, Tulsa District U.S. Army Corps of Engineers is strictly prohibited.
These data are gathered electronically and, as presented, have not undergone any form of quality control. These data are not guaranteed to be valid or correct.
Go to home page.
Go to station list.

Upstream stations:

Downstream station:
Previous Day
Next Day
Current Day
    
SHEF ID:       HRGA4     Little River near Horatio, AR
STATION TYPE:  

               PRECIP     STAGE  RIV-FLOW  BAT-LOAD
                   in        ft       cfs      volt
              Ccp-Rev   Ccp-Rev   Ccp-Rev   Ccp-Rev
(US/Central)
03/07 00:00      0.00     14.83      8537     12.97
03/07 01:00      0.00     14.95      8665     12.97
03/07 02:00      0.00     15.05      8773     12.97
03/07 03:00      0.00     15.16      8891     12.89
03/07 04:00      0.00     15.24      8978     12.89
03/07 05:00      0.00     15.33      9075     12.81
03/07 06:00      0.00     15.43      9184     12.81
03/07 07:00      0.00     15.53      9292     12.81
03/07 08:00      0.00     15.61      9380     12.81
03/07 09:00      0.00     15.72      9500     12.81
03/07 10:00      0.00     15.77      9555     13.21
03/07 11:00      0.00     15.89      9687     14.08
03/07 12:00      0.00     16.00      9808     13.84
03/07 13:00      0.00     16.19     10019     13.53
03/07 14:00      0.00     16.40     10253     13.44
03/07 15:00      0.00     16.61     10489     13.37
03/07 16:00      0.00     16.86     10771     13.37
03/07 17:00      0.00     17.11     11054     13.37
03/07 18:00      0.00     17.34     11317     13.29
03/07 19:00      0.00     17.56     11570     13.21
03/07 20:00      0.00     17.78     11824     13.05
03/07 21:00      0.00     17.97     12045     13.05
03/07 22:00      0.00     18.12     12220     12.97
03/07 23:00      0.00     18.31     12442     12.97